sensor_id;sensor_type;location;lat;lon;timestamp;temperature;humidity
19945;DHT22;10134;50.952;6.930;2023-03-23T00:01:27;14.70;99.90
19945;DHT22;10134;50.952;6.930;2023-03-23T00:03:57;14.60;99.90
19945;DHT22;10134;50.952;6.930;2023-03-23T00:06:25;14.60;99.90
19945;DHT22;10134;50.952;6.930;2023-03-23T00:08:53;14.60;99.90
19945;DHT22;10134;50.952;6.930;2023-03-23T00:11:30;14.60;99.90
19945;DHT22;10134;50.952;6.930;2023-03-23T00:13:58;14.60;99.90
19945;DHT22;10134;50.952;6.930;2023-03-23T00:16:30;14.60;99.90
19945;DHT22;10134;50.952;6.930;2023-03-23T00:19:03;14.60;99.90
19945;DHT22;10134;50.952;6.930;2023-03-23T00:21:37;14.60;99.90
19945;DHT22;10134;50.952;6.930;2023-03-23T00:26:41;14.60;99.90
19945;DHT22;10134;50.952;6.930;2023-03-23T00:31:44;14.60;99.90
19945;DHT22;10134;50.952;6.930;2023-03-23T00:34:16;14.60;99.90
19945;DHT22;10134;50.952;6.930;2023-03-23T00:36:47;14.60;99.90
19945;DHT22;10134;50.952;6.930;2023-03-23T00:39:13;14.60;99.90
19945;DHT22;10134;50.952;6.930;2023-03-23T00:41:46;14.60;99.90
19945;DHT22;10134;50.952;6.930;2023-03-23T00:44:13;14.60;99.90
19945;DHT22;10134;50.952;6.930;2023-03-23T00:46:46;14.60;99.90
19945;DHT22;10134;50.952;6.930;2023-03-23T00:49:17;14.60;99.90
19945;DHT22;10134;50.952;6.930;2023-03-23T00:51:44;14.50;99.90
19945;DHT22;10134;50.952;6.930;2023-03-23T00:54:11;14.50;99.90
19945;DHT22;10134;50.952;6.930;2023-03-23T00:56:38;14.50;99.90
19945;DHT22;10134;50.952;6.930;2023-03-23T00:59:05;14.50;99.90
19945;DHT22;10134;50.952;6.930;2023-03-23T01:01:32;14.50;99.90
19945;DHT22;10134;50.952;6.930;2023-03-23T01:04:00;14.50;99.90
19945;DHT22;10134;50.952;6.930;2023-03-23T01:06:31;14.50;99.90
19945;DHT22;10134;50.952;6.930;2023-03-23T01:08:58;14.60;99.90
19945;DHT22;10134;50.952;6.930;2023-03-23T01:11:25;14.60;99.90
19945;DHT22;10134;50.952;6.930;2023-03-23T01:13:51;14.60;99.90
19945;DHT22;10134;50.952;6.930;2023-03-23T01:16:20;14.60;99.90
19945;DHT22;10134;50.952;6.930;2023-03-23T01:18:46;14.60;99.90
19945;DHT22;10134;50.952;6.930;2023-03-23T01:21:16;14.60;99.90
19945;DHT22;10134;50.952;6.930;2023-03-23T01:23:43;14.60;99.90
19945;DHT22;10134;50.952;6.930;2023-03-23T01:26:18;14.60;99.90
19945;DHT22;10134;50.952;6.930;2023-03-23T01:28:46;14.60;99.90
19945;DHT22;10134;50.952;6.930;2023-03-23T01:31:21;14.60;99.90
19945;DHT22;10134;50.952;6.930;2023-03-23T01:33:48;14.60;99.90
19945;DHT22;10134;50.952;6.930;2023-03-23T01:36:19;14.60;99.90
19945;DHT22;10134;50.952;6.930;2023-03-23T01:38:48;14.60;99.90
19945;DHT22;10134;50.952;6.930;2023-03-23T01:41:16;14.50;99.90
19945;DHT22;10134;50.952;6.930;2023-03-23T01:44:06;14.50;99.90
19945;DHT22;10134;50.952;6.930;2023-03-23T01:46:42;14.50;99.90
19945;DHT22;10134;50.952;6.930;2023-03-23T01:49:21;14.50;99.90
19945;DHT22;10134;50.952;6.930;2023-03-23T01:51:53;14.50;99.90
19945;DHT22;10134;50.952;6.930;2023-03-23T01:54:21;14.50;99.90
19945;DHT22;10134;50.952;6.930;2023-03-23T01:56:59;14.40;99.90
19945;DHT22;10134;50.952;6.930;2023-03-23T01:59:26;14.50;99.90
19945;DHT22;10134;50.952;6.930;2023-03-23T02:02:14;14.40;99.90
19945;DHT22;10134;50.952;6.930;2023-03-23T02:04:42;14.40;99.90
19945;DHT22;10134;50.952;6.930;2023-03-23T02:07:09;14.40;99.90
19945;DHT22;10134;50.952;6.930;2023-03-23T02:09:37;14.30;99.90
19945;DHT22;10134;50.952;6.930;2023-03-23T02:12:04;14.30;99.90
19945;DHT22;10134;50.952;6.930;2023-03-23T02:14:32;14.30;99.90
19945;DHT22;10134;50.952;6.930;2023-03-23T02:20:43;14.30;99.90
19945;DHT22;10134;50.952;6.930;2023-03-23T02:34:41;14.30;99.90
19945;DHT22;10134;50.952;6.930;2023-03-23T02:37:12;14.30;99.90
19945;DHT22;10134;50.952;6.930;2023-03-23T02:39:44;14.30;99.90
19945;DHT22;10134;50.952;6.930;2023-03-23T02:42:17;14.30;99.90
19945;DHT22;10134;50.952;6.930;2023-03-23T02:44:45;14.30;99.90
19945;DHT22;10134;50.952;6.930;2023-03-23T02:47:18;14.30;99.90
19945;DHT22;10134;50.952;6.930;2023-03-23T02:49:48;14.30;99.90
19945;DHT22;10134;50.952;6.930;2023-03-23T02:52:19;14.20;99.90
19945;DHT22;10134;50.952;6.930;2023-03-23T02:54:49;14.20;99.90
19945;DHT22;10134;50.952;6.930;2023-03-23T02:57:17;14.20;99.90
19945;DHT22;10134;50.952;6.930;2023-03-23T02:59:45;14.20;99.90
19945;DHT22;10134;50.952;6.930;2023-03-23T03:02:30;14.20;99.90
19945;DHT22;10134;50.952;6.930;2023-03-23T03:11:07;14.20;99.90
19945;DHT22;10134;50.952;6.930;2023-03-23T03:19:22;14.20;99.90
19945;DHT22;10134;50.952;6.930;2023-03-23T03:21:53;14.10;99.90
19945;DHT22;10134;50.952;6.930;2023-03-23T03:24:28;14.10;99.90
19945;DHT22;10134;50.952;6.930;2023-03-23T03:26:57;14.10;99.90
19945;DHT22;10134;50.952;6.930;2023-03-23T03:29:35;14.10;99.90
19945;DHT22;10134;50.952;6.930;2023-03-23T03:32:05;14.10;99.90
19945;DHT22;10134;50.952;6.930;2023-03-23T03:34:33;14.10;99.90
19945;DHT22;10134;50.952;6.930;2023-03-23T03:37:02;14.10;99.90
19945;DHT22;10134;50.952;6.930;2023-03-23T03:39:35;14.10;99.90
19945;DHT22;10134;50.952;6.930;2023-03-23T03:42:04;14.10;99.90
19945;DHT22;10134;50.952;6.930;2023-03-23T03:44:31;14.10;99.90
19945;DHT22;10134;50.952;6.930;2023-03-23T03:46:57;14.10;99.90
19945;DHT22;10134;50.952;6.930;2023-03-23T03:49:24;14.00;99.90
19945;DHT22;10134;50.952;6.930;2023-03-23T03:51:53;14.10;99.90
19945;DHT22;10134;50.952;6.930;2023-03-23T03:54:24;14.10;99.90
19945;DHT22;10134;50.952;6.930;2023-03-23T03:56:51;14.00;99.90
19945;DHT22;10134;50.952;6.930;2023-03-23T03:59:42;14.00;99.90
19945;DHT22;10134;50.952;6.930;2023-03-23T04:02:09;14.00;99.90
19945;DHT22;10134;50.952;6.930;2023-03-23T04:04:39;14.00;99.90
19945;DHT22;10134;50.952;6.930;2023-03-23T04:07:06;14.00;99.90
19945;DHT22;10134;50.952;6.930;2023-03-23T04:09:32;14.00;99.90
19945;DHT22;10134;50.952;6.930;2023-03-23T04:11:58;14.10;99.90
19945;DHT22;10134;50.952;6.930;2023-03-23T04:14:54;14.00;99.90
19945;DHT22;10134;50.952;6.930;2023-03-23T04:17:20;14.00;99.90
19945;DHT22;10134;50.952;6.930;2023-03-23T04:19:46;14.00;99.90
19945;DHT22;10134;50.952;6.930;2023-03-23T04:22:14;14.10;99.90
19945;DHT22;10134;50.952;6.930;2023-03-23T04:24:43;14.10;99.90
19945;DHT22;10134;50.952;6.930;2023-03-23T04:27:15;14.10;99.90
19945;DHT22;10134;50.952;6.930;2023-03-23T04:29:41;14.10;99.90
19945;DHT22;10134;50.952;6.930;2023-03-23T04:32:26;14.10;99.90
19945;DHT22;10134;50.952;6.930;2023-03-23T04:34:56;14.10;99.90
19945;DHT22;10134;50.952;6.930;2023-03-23T04:37:28;14.10;99.90
19945;DHT22;10134;50.952;6.930;2023-03-23T04:40:00;14.00;99.90
19945;DHT22;10134;50.952;6.930;2023-03-23T04:42:29;14.10;99.90
19945;DHT22;10134;50.952;6.930;2023-03-23T04:45:19;14.10;99.90
19945;DHT22;10134;50.952;6.930;2023-03-23T04:47:50;14.10;99.90
19945;DHT22;10134;50.952;6.930;2023-03-23T04:50:28;14.10;99.90
19945;DHT22;10134;50.952;6.930;2023-03-23T04:53:00;14.00;99.90
19945;DHT22;10134;50.952;6.930;2023-03-23T04:55:35;14.00;99.90
19945;DHT22;10134;50.952;6.930;2023-03-23T04:58:07;14.00;99.90
19945;DHT22;10134;50.952;6.930;2023-03-23T05:00:38;14.00;99.90
19945;DHT22;10134;50.952;6.930;2023-03-23T05:03:05;14.00;99.90
19945;DHT22;10134;50.952;6.930;2023-03-23T05:05:33;14.00;99.90
19945;DHT22;10134;50.952;6.930;2023-03-23T05:08:05;14.00;99.90
19945;DHT22;10134;50.952;6.930;2023-03-23T05:10:35;14.00;99.90
19945;DHT22;10134;50.952;6.930;2023-03-23T05:13:07;14.00;99.90
19945;DHT22;10134;50.952;6.930;2023-03-23T05:15:33;14.00;99.90
19945;DHT22;10134;50.952;6.930;2023-03-23T05:18:01;14.00;99.90
19945;DHT22;10134;50.952;6.930;2023-03-23T05:20:30;14.00;99.90
19945;DHT22;10134;50.952;6.930;2023-03-23T05:23:01;14.00;99.90
19945;DHT22;10134;50.952;6.930;2023-03-23T05:25:32;14.00;99.90
19945;DHT22;10134;50.952;6.930;2023-03-23T05:28:12;14.00;99.90
19945;DHT22;10134;50.952;6.930;2023-03-23T05:30:49;14.00;99.90
19945;DHT22;10134;50.952;6.930;2023-03-23T05:33:16;14.00;99.90
19945;DHT22;10134;50.952;6.930;2023-03-23T05:36:00;14.00;99.90
19945;DHT22;10134;50.952;6.930;2023-03-23T05:38:34;14.00;99.90
19945;DHT22;10134;50.952;6.930;2023-03-23T05:41:02;14.00;99.90
19945;DHT22;10134;50.952;6.930;2023-03-23T05:43:36;14.00;99.90
19945;DHT22;10134;50.952;6.930;2023-03-23T05:46:18;14.00;99.90
19945;DHT22;10134;50.952;6.930;2023-03-23T05:48:47;14.00;99.90
19945;DHT22;10134;50.952;6.930;2023-03-23T05:51:16;14.00;99.90
19945;DHT22;10134;50.952;6.930;2023-03-23T05:53:45;14.00;99.90
19945;DHT22;10134;50.952;6.930;2023-03-23T05:56:15;14.00;99.90
19945;DHT22;10134;50.952;6.930;2023-03-23T05:59:19;14.00;99.90
19945;DHT22;10134;50.952;6.930;2023-03-23T06:01:51;14.00;99.90
19945;DHT22;10134;50.952;6.930;2023-03-23T06:04:20;14.00;99.90
19945;DHT22;10134;50.952;6.930;2023-03-23T06:07:07;14.00;99.90
19945;DHT22;10134;50.952;6.930;2023-03-23T06:09:34;14.00;99.90
19945;DHT22;10134;50.952;6.930;2023-03-23T06:12:26;14.00;99.90
19945;DHT22;10134;50.952;6.930;2023-03-23T06:15:06;14.00;99.90
19945;DHT22;10134;50.952;6.930;2023-03-23T06:17:53;14.00;99.90
19945;DHT22;10134;50.952;6.930;2023-03-23T06:20:24;14.00;99.90
19945;DHT22;10134;50.952;6.930;2023-03-23T06:22:52;14.00;99.90
19945;DHT22;10134;50.952;6.930;2023-03-23T06:25:31;14.00;99.90
19945;DHT22;10134;50.952;6.930;2023-03-23T06:27:58;14.00;99.90
19945;DHT22;10134;50.952;6.930;2023-03-23T06:30:25;14.00;99.90
19945;DHT22;10134;50.952;6.930;2023-03-23T06:32:53;14.00;99.90
19945;DHT22;10134;50.952;6.930;2023-03-23T06:35:35;14.00;99.90
19945;DHT22;10134;50.952;6.930;2023-03-23T06:38:12;14.00;99.90
19945;DHT22;10134;50.952;6.930;2023-03-23T06:41:05;14.00;99.90
19945;DHT22;10134;50.952;6.930;2023-03-23T06:43:32;14.00;99.90
19945;DHT22;10134;50.952;6.930;2023-03-23T06:46:10;14.00;99.90
19945;DHT22;10134;50.952;6.930;2023-03-23T06:48:36;14.00;99.90
19945;DHT22;10134;50.952;6.930;2023-03-23T06:51:05;14.10;99.90
19945;DHT22;10134;50.952;6.930;2023-03-23T06:53:32;14.10;99.90
19945;DHT22;10134;50.952;6.930;2023-03-23T06:55:59;14.10;99.90
19945;DHT22;10134;50.952;6.930;2023-03-23T06:58:26;14.10;99.90
19945;DHT22;10134;50.952;6.930;2023-03-23T07:00:54;14.20;99.90
19945;DHT22;10134;50.952;6.930;2023-03-23T07:03:24;14.20;99.90
19945;DHT22;10134;50.952;6.930;2023-03-23T07:05:52;14.20;99.90
19945;DHT22;10134;50.952;6.930;2023-03-23T07:08:26;14.20;99.90
19945;DHT22;10134;50.952;6.930;2023-03-23T07:10:53;14.30;99.90
19945;DHT22;10134;50.952;6.930;2023-03-23T07:13:25;14.30;99.90
19945;DHT22;10134;50.952;6.930;2023-03-23T07:15:55;14.30;99.90
19945;DHT22;10134;50.952;6.930;2023-03-23T07:18:22;14.30;99.90
19945;DHT22;10134;50.952;6.930;2023-03-23T07:20:50;14.30;99.90
19945;DHT22;10134;50.952;6.930;2023-03-23T07:23:18;14.30;99.90
19945;DHT22;10134;50.952;6.930;2023-03-23T07:25:51;14.30;99.90
19945;DHT22;10134;50.952;6.930;2023-03-23T07:28:23;14.30;99.90
19945;DHT22;10134;50.952;6.930;2023-03-23T07:30:51;14.40;99.90
19945;DHT22;10134;50.952;6.930;2023-03-23T07:33:18;14.40;99.90
19945;DHT22;10134;50.952;6.930;2023-03-23T07:35:45;14.40;99.90
19945;DHT22;10134;50.952;6.930;2023-03-23T07:38:15;14.40;99.90
19945;DHT22;10134;50.952;6.930;2023-03-23T07:40:46;14.40;99.90
19945;DHT22;10134;50.952;6.930;2023-03-23T07:43:16;14.40;99.90
19945;DHT22;10134;50.952;6.930;2023-03-23T07:46:17;14.50;99.90
19945;DHT22;10134;50.952;6.930;2023-03-23T07:48:56;14.50;99.90
19945;DHT22;10134;50.952;6.930;2023-03-23T07:51:29;14.50;99.90
19945;DHT22;10134;50.952;6.930;2023-03-23T07:53:55;14.50;99.90
19945;DHT22;10134;50.952;6.930;2023-03-23T07:56:45;14.50;99.90
19945;DHT22;10134;50.952;6.930;2023-03-23T07:59:14;14.50;99.90
19945;DHT22;10134;50.952;6.930;2023-03-23T08:01:42;14.50;99.90
19945;DHT22;10134;50.952;6.930;2023-03-23T08:04:29;14.50;99.90
19945;DHT22;10134;50.952;6.930;2023-03-23T08:07:14;14.50;99.90
19945;DHT22;10134;50.952;6.930;2023-03-23T08:09:56;14.60;99.90
19945;DHT22;10134;50.952;6.930;2023-03-23T08:12:54;14.60;99.90
19945;DHT22;10134;50.952;6.930;2023-03-23T08:15:21;14.60;99.90
19945;DHT22;10134;50.952;6.930;2023-03-23T08:18:06;14.60;99.90
19945;DHT22;10134;50.952;6.930;2023-03-23T08:20:51;14.70;99.90
19945;DHT22;10134;50.952;6.930;2023-03-23T08:23:19;14.70;99.90
19945;DHT22;10134;50.952;6.930;2023-03-23T08:26:06;14.70;99.90
19945;DHT22;10134;50.952;6.930;2023-03-23T08:28:58;14.70;99.90
19945;DHT22;10134;50.952;6.930;2023-03-23T08:31:43;14.70;99.90
19945;DHT22;10134;50.952;6.930;2023-03-23T08:34:29;14.80;99.90
19945;DHT22;10134;50.952;6.930;2023-03-23T08:37:09;14.80;99.90
19945;DHT22;10134;50.952;6.930;2023-03-23T08:40:05;14.80;99.90
19945;DHT22;10134;50.952;6.930;2023-03-23T08:42:55;14.90;99.90
19945;DHT22;10134;50.952;6.930;2023-03-23T08:46:00;14.90;99.90
19945;DHT22;10134;50.952;6.930;2023-03-23T08:48:46;14.90;99.90
19945;DHT22;10134;50.952;6.930;2023-03-23T08:51:31;14.90;99.90
19945;DHT22;10134;50.952;6.930;2023-03-23T08:54:30;15.00;99.90
19945;DHT22;10134;50.952;6.930;2023-03-23T08:57:01;15.00;99.90
19945;DHT22;10134;50.952;6.930;2023-03-23T08:59:50;15.00;99.90
19945;DHT22;10134;50.952;6.930;2023-03-23T09:02:52;15.00;99.90
19945;DHT22;10134;50.952;6.930;2023-03-23T09:05:23;15.10;99.90
19945;DHT22;10134;50.952;6.930;2023-03-23T09:08:03;15.10;99.90
19945;DHT22;10134;50.952;6.930;2023-03-23T09:10:30;15.10;99.90
19945;DHT22;10134;50.952;6.930;2023-03-23T09:12:56;15.10;99.90
19945;DHT22;10134;50.952;6.930;2023-03-23T09:15:23;15.10;99.90
19945;DHT22;10134;50.952;6.930;2023-03-23T09:17:51;15.20;99.90
19945;DHT22;10134;50.952;6.930;2023-03-23T09:20:22;15.20;99.90
19945;DHT22;10134;50.952;6.930;2023-03-23T09:22:51;15.20;99.90
19945;DHT22;10134;50.952;6.930;2023-03-23T09:25:19;15.20;99.90
19945;DHT22;10134;50.952;6.930;2023-03-23T09:27:52;15.30;99.90
19945;DHT22;10134;50.952;6.930;2023-03-23T09:30:20;15.30;99.90
19945;DHT22;10134;50.952;6.930;2023-03-23T09:32:47;15.40;99.90
19945;DHT22;10134;50.952;6.930;2023-03-23T09:35:15;15.40;99.90
19945;DHT22;10134;50.952;6.930;2023-03-23T09:37:44;15.50;99.90
19945;DHT22;10134;50.952;6.930;2023-03-23T09:40:23;15.50;99.90
19945;DHT22;10134;50.952;6.930;2023-03-23T09:46:00;15.60;99.90
19945;DHT22;10134;50.952;6.930;2023-03-23T09:48:46;15.70;99.90
19945;DHT22;10134;50.952;6.930;2023-03-23T09:54:12;15.70;99.90
19945;DHT22;10134;50.952;6.930;2023-03-23T09:56:37;15.70;99.90
19945;DHT22;10134;50.952;6.930;2023-03-23T10:00:10;15.80;99.90
19945;DHT22;10134;50.952;6.930;2023-03-23T10:02:19;15.70;99.90
19945;DHT22;10134;50.952;6.930;2023-03-23T10:04:49;15.70;99.70
19945;DHT22;10134;50.952;6.930;2023-03-23T10:07:18;15.70;99.70
19945;DHT22;10134;50.952;6.930;2023-03-23T10:09:47;15.70;99.50
19945;DHT22;10134;50.952;6.930;2023-03-23T10:12:40;15.70;99.60
19945;DHT22;10134;50.952;6.930;2023-03-23T10:17:46;15.80;99.70
19945;DHT22;10134;50.952;6.930;2023-03-23T10:23:09;15.80;99.90
19945;DHT22;10134;50.952;6.930;2023-03-23T10:25:41;15.90;99.90
19945;DHT22;10134;50.952;6.930;2023-03-23T10:28:36;15.90;99.90
19945;DHT22;10134;50.952;6.930;2023-03-23T10:31:03;15.90;99.90
19945;DHT22;10134;50.952;6.930;2023-03-23T10:33:41;15.90;99.90
19945;DHT22;10134;50.952;6.930;2023-03-23T10:36:34;15.90;99.90
19945;DHT22;10134;50.952;6.930;2023-03-23T10:39:17;15.80;99.90
19945;DHT22;10134;50.952;6.930;2023-03-23T10:41:44;15.80;99.90
19945;DHT22;10134;50.952;6.930;2023-03-23T10:44:23;15.80;99.90
19945;DHT22;10134;50.952;6.930;2023-03-23T10:49:25;15.80;99.90
19945;DHT22;10134;50.952;6.930;2023-03-23T10:52:06;15.80;99.90
19945;DHT22;10134;50.952;6.930;2023-03-23T10:54:49;15.80;99.90
19945;DHT22;10134;50.952;6.930;2023-03-23T10:57:26;15.70;99.90
19945;DHT22;10134;50.952;6.930;2023-03-23T11:02:40;15.70;99.90
19945;DHT22;10134;50.952;6.930;2023-03-23T11:05:27;15.70;99.90
19945;DHT22;10134;50.952;6.930;2023-03-23T11:08:00;15.70;99.90
19945;DHT22;10134;50.952;6.930;2023-03-23T11:10:36;15.70;99.90
19945;DHT22;10134;50.952;6.930;2023-03-23T11:13:03;15.70;99.90
19945;DHT22;10134;50.952;6.930;2023-03-23T11:15:34;15.70;99.90
19945;DHT22;10134;50.952;6.930;2023-03-23T11:18:06;15.70;99.90
19945;DHT22;10134;50.952;6.930;2023-03-23T11:20:44;15.70;99.90
19945;DHT22;10134;50.952;6.930;2023-03-23T11:23:21;15.70;99.90
19945;DHT22;10134;50.952;6.930;2023-03-23T11:26:13;15.80;99.90
19945;DHT22;10134;50.952;6.930;2023-03-23T11:28:52;15.80;99.90
19945;DHT22;10134;50.952;6.930;2023-03-23T11:31:27;15.80;99.90
19945;DHT22;10134;50.952;6.930;2023-03-23T11:34:03;15.80;99.90
19945;DHT22;10134;50.952;6.930;2023-03-23T11:36:35;15.80;99.90
19945;DHT22;10134;50.952;6.930;2023-03-23T11:39:17;15.80;99.90
19945;DHT22;10134;50.952;6.930;2023-03-23T11:41:44;15.80;99.90
19945;DHT22;10134;50.952;6.930;2023-03-23T11:44:14;15.80;99.90
19945;DHT22;10134;50.952;6.930;2023-03-23T11:47:47;15.80;99.90
19945;DHT22;10134;50.952;6.930;2023-03-23T11:52:24;15.80;99.90
19945;DHT22;10134;50.952;6.930;2023-03-23T11:55:08;15.80;99.90
19945;DHT22;10134;50.952;6.930;2023-03-23T11:57:36;15.80;99.90
19945;DHT22;10134;50.952;6.930;2023-03-23T12:00:20;15.70;99.90
19945;DHT22;10134;50.952;6.930;2023-03-23T12:11:27;15.80;99.90
19945;DHT22;10134;50.952;6.930;2023-03-23T12:19:41;15.90;99.90
19945;DHT22;10134;50.952;6.930;2023-03-23T12:28:10;16.10;99.90
19945;DHT22;10134;50.952;6.930;2023-03-23T12:30:50;16.20;99.90
19945;DHT22;10134;50.952;6.930;2023-03-23T12:36:37;16.50;99.90
19945;DHT22;10134;50.952;6.930;2023-03-23T12:39:37;16.50;99.90
19945;DHT22;10134;50.952;6.930;2023-03-23T12:48:05;16.50;99.90
19945;DHT22;10134;50.952;6.930;2023-03-23T12:50:34;16.50;99.90
19945;DHT22;10134;50.952;6.930;2023-03-23T12:53:23;16.50;99.90
19945;DHT22;10134;50.952;6.930;2023-03-23T12:58:46;16.50;99.90
19945;DHT22;10134;50.952;6.930;2023-03-23T13:01:32;16.60;99.90
19945;DHT22;10134;50.952;6.930;2023-03-23T13:04:16;16.60;99.90
19945;DHT22;10134;50.952;6.930;2023-03-23T13:06:48;16.60;99.90
19945;DHT22;10134;50.952;6.930;2023-03-23T13:12:08;16.70;99.90
19945;DHT22;10134;50.952;6.930;2023-03-23T13:23:16;16.70;99.90
19945;DHT22;10134;50.952;6.930;2023-03-23T13:25:55;16.80;99.90
19945;DHT22;10134;50.952;6.930;2023-03-23T13:28:24;16.70;99.90
19945;DHT22;10134;50.952;6.930;2023-03-23T13:34:30;16.70;99.90
19945;DHT22;10134;50.952;6.930;2023-03-23T13:39:47;16.70;99.90
19945;DHT22;10134;50.952;6.930;2023-03-23T13:49:51;16.50;99.90
19945;DHT22;10134;50.952;6.930;2023-03-23T14:05:44;16.90;99.90
19945;DHT22;10134;50.952;6.930;2023-03-23T14:10:55;17.20;99.90
19945;DHT22;10134;50.952;6.930;2023-03-23T14:13:50;17.20;99.90
19945;DHT22;10134;50.952;6.930;2023-03-23T14:16:19;17.30;99.90
19945;DHT22;10134;50.952;6.930;2023-03-23T14:18:55;17.30;99.90
19945;DHT22;10134;50.952;6.930;2023-03-23T14:21:33;17.30;99.90
19945;DHT22;10134;50.952;6.930;2023-03-23T14:24:06;17.20;99.90
19945;DHT22;10134;50.952;6.930;2023-03-23T14:26:34;17.20;99.90
19945;DHT22;10134;50.952;6.930;2023-03-23T14:29:03;17.20;99.90
19945;DHT22;10134;50.952;6.930;2023-03-23T14:31:30;17.10;99.90
19945;DHT22;10134;50.952;6.930;2023-03-23T14:34:02;17.10;99.90
19945;DHT22;10134;50.952;6.930;2023-03-23T14:36:30;17.00;99.90
19945;DHT22;10134;50.952;6.930;2023-03-23T14:39:43;16.90;99.90
19945;DHT22;10134;50.952;6.930;2023-03-23T14:41:51;16.90;99.90
19945;DHT22;10134;50.952;6.930;2023-03-23T14:44:31;16.90;99.90
19945;DHT22;10134;50.952;6.930;2023-03-23T14:47:03;16.80;99.90
19945;DHT22;10134;50.952;6.930;2023-03-23T14:49:32;16.80;99.90
19945;DHT22;10134;50.952;6.930;2023-03-23T14:52:25;16.80;99.90
19945;DHT22;10134;50.952;6.930;2023-03-23T14:54:50;16.70;99.90
19945;DHT22;10134;50.952;6.930;2023-03-23T14:57:17;16.70;99.90
19945;DHT22;10134;50.952;6.930;2023-03-23T14:59:47;16.70;99.90
19945;DHT22;10134;50.952;6.930;2023-03-23T15:02:21;16.60;99.90
19945;DHT22;10134;50.952;6.930;2023-03-23T15:04:52;16.60;99.90
19945;DHT22;10134;50.952;6.930;2023-03-23T15:07:19;16.70;99.90
19945;DHT22;10134;50.952;6.930;2023-03-23T15:09:47;16.70;99.90
19945;DHT22;10134;50.952;6.930;2023-03-23T15:12:24;16.80;99.90
19945;DHT22;10134;50.952;6.930;2023-03-23T15:14:54;16.90;99.90
19945;DHT22;10134;50.952;6.930;2023-03-23T15:17:25;17.00;99.90
19945;DHT22;10134;50.952;6.930;2023-03-23T15:19:53;17.20;99.90
19945;DHT22;10134;50.952;6.930;2023-03-23T15:22:31;17.30;99.90
19945;DHT22;10134;50.952;6.930;2023-03-23T15:25:22;17.60;99.90
19945;DHT22;10134;50.952;6.930;2023-03-23T15:27:54;17.80;99.90
19945;DHT22;10134;50.952;6.930;2023-03-23T15:32:53;18.00;99.70
19945;DHT22;10134;50.952;6.930;2023-03-23T15:35:21;18.00;99.50
19945;DHT22;10134;50.952;6.930;2023-03-23T15:37:57;18.10;99.40
19945;DHT22;10134;50.952;6.930;2023-03-23T15:40:26;18.10;98.80
19945;DHT22;10134;50.952;6.930;2023-03-23T15:43:32;18.10;98.40
19945;DHT22;10134;50.952;6.930;2023-03-23T15:46:04;18.10;97.90
19945;DHT22;10134;50.952;6.930;2023-03-23T15:48:51;18.10;97.70
19945;DHT22;10134;50.952;6.930;2023-03-23T15:51:22;18.00;97.50
19945;DHT22;10134;50.952;6.930;2023-03-23T15:53:54;18.00;97.20
19945;DHT22;10134;50.952;6.930;2023-03-23T15:56:20;17.90;97.20
19945;DHT22;10134;50.952;6.930;2023-03-23T15:58:47;17.90;97.30
19945;DHT22;10134;50.952;6.930;2023-03-23T16:01:24;17.90;97.50
19945;DHT22;10134;50.952;6.930;2023-03-23T16:04:09;17.90;97.40
19945;DHT22;10134;50.952;6.930;2023-03-23T16:06:37;17.90;97.20
19945;DHT22;10134;50.952;6.930;2023-03-23T16:09:12;17.90;96.90
19945;DHT22;10134;50.952;6.930;2023-03-23T16:11:40;17.90;97.40
19945;DHT22;10134;50.952;6.930;2023-03-23T16:14:08;17.90;97.00
19945;DHT22;10134;50.952;6.930;2023-03-23T16:16:36;17.80;96.70
19945;DHT22;10134;50.952;6.930;2023-03-23T16:19:04;17.80;96.90
19945;DHT22;10134;50.952;6.930;2023-03-23T16:21:32;17.70;96.50
19945;DHT22;10134;50.952;6.930;2023-03-23T16:23:59;17.60;96.70
19945;DHT22;10134;50.952;6.930;2023-03-23T16:26:27;17.60;96.70
19945;DHT22;10134;50.952;6.930;2023-03-23T16:28:57;17.60;96.60
19945;DHT22;10134;50.952;6.930;2023-03-23T16:31:40;17.60;96.50
19945;DHT22;10134;50.952;6.930;2023-03-23T16:34:08;17.60;96.20
19945;DHT22;10134;50.952;6.930;2023-03-23T16:36:36;17.50;96.00
19945;DHT22;10134;50.952;6.930;2023-03-23T16:39:03;17.50;96.00
19945;DHT22;10134;50.952;6.930;2023-03-23T16:41:30;17.40;95.90
19945;DHT22;10134;50.952;6.930;2023-03-23T16:43:58;17.40;96.00
19945;DHT22;10134;50.952;6.930;2023-03-23T16:46:25;17.40;96.00
19945;DHT22;10134;50.952;6.930;2023-03-23T16:48:52;17.30;96.20
19945;DHT22;10134;50.952;6.930;2023-03-23T16:51:20;17.30;96.30
19945;DHT22;10134;50.952;6.930;2023-03-23T16:53:47;17.20;96.30
19945;DHT22;10134;50.952;6.930;2023-03-23T16:56:14;17.20;96.80
19945;DHT22;10134;50.952;6.930;2023-03-23T16:58:42;17.10;97.30
19945;DHT22;10134;50.952;6.930;2023-03-23T17:01:09;17.20;97.00
19945;DHT22;10134;50.952;6.930;2023-03-23T17:03:38;17.20;96.80
19945;DHT22;10134;50.952;6.930;2023-03-23T17:06:09;17.20;96.50
19945;DHT22;10134;50.952;6.930;2023-03-23T17:08:36;17.20;96.20
19945;DHT22;10134;50.952;6.930;2023-03-23T17:11:04;17.20;96.10
19945;DHT22;10134;50.952;6.930;2023-03-23T17:13:33;17.20;96.00
19945;DHT22;10134;50.952;6.930;2023-03-23T17:16:01;17.20;96.10
19945;DHT22;10134;50.952;6.930;2023-03-23T17:18:30;17.20;96.10
19945;DHT22;10134;50.952;6.930;2023-03-23T17:20:58;17.10;96.00
19945;DHT22;10134;50.952;6.930;2023-03-23T17:23:25;17.10;96.00
19945;DHT22;10134;50.952;6.930;2023-03-23T17:25:53;17.10;96.00
19945;DHT22;10134;50.952;6.930;2023-03-23T17:28:21;17.00;96.00
19945;DHT22;10134;50.952;6.930;2023-03-23T17:30:50;17.00;96.00
19945;DHT22;10134;50.952;6.930;2023-03-23T17:33:18;17.00;96.00
19945;DHT22;10134;50.952;6.930;2023-03-23T17:35:46;17.00;96.00
19945;DHT22;10134;50.952;6.930;2023-03-23T17:38:18;17.00;96.00
19945;DHT22;10134;50.952;6.930;2023-03-23T17:40:45;16.90;96.00
19945;DHT22;10134;50.952;6.930;2023-03-23T17:43:13;16.90;96.00
19945;DHT22;10134;50.952;6.930;2023-03-23T17:45:40;16.90;96.10
19945;DHT22;10134;50.952;6.930;2023-03-23T17:48:10;16.80;96.10
19945;DHT22;10134;50.952;6.930;2023-03-23T17:50:37;16.80;96.20
19945;DHT22;10134;50.952;6.930;2023-03-23T17:53:05;16.70;96.10
19945;DHT22;10134;50.952;6.930;2023-03-23T17:55:32;16.70;96.20
19945;DHT22;10134;50.952;6.930;2023-03-23T17:57:59;16.70;96.20
19945;DHT22;10134;50.952;6.930;2023-03-23T18:00:27;16.70;96.30
19945;DHT22;10134;50.952;6.930;2023-03-23T18:02:55;16.70;96.50
19945;DHT22;10134;50.952;6.930;2023-03-23T18:05:22;16.70;96.50
19945;DHT22;10134;50.952;6.930;2023-03-23T18:07:50;16.60;96.40
19945;DHT22;10134;50.952;6.930;2023-03-23T18:10:18;16.60;96.30
19945;DHT22;10134;50.952;6.930;2023-03-23T18:12:48;16.60;96.40
19945;DHT22;10134;50.952;6.930;2023-03-23T18:15:17;16.60;96.30